Time;durP1;ratioP1;P1;durP2;ratioP2;P2;SDS_P1;SDS_P2;PMS_P1;PMS_P2;Temp;Humidity;BMP_temperature;BMP_pressure;BME280_temperature;BME280_humidity;BME280_pressure;Samples;Min_cycle;Max_cycle;Signal;HPM_P1;HPM_P2
2021/11/23 07:00:14;;;;;;;5.75;1.00;;;5.00;99.90;;;;;;6112065;23;21179;31
2021/11/23 07:02:41;;;;;;;6.43;1.00;;;4.90;99.90;;;;;;6068405;23;20060;-82
2021/11/23 07:05:09;;;;;;;3.83;1.15;;;4.90;99.90;;;;;;6062984;23;20031;-81
2021/11/23 07:07:36;;;;;;;7.15;1.15;;;5.00;99.90;;;;;;6064957;23;20365;-81
2021/11/23 07:10:08;;;;;;;4.82;0.73;;;5.00;99.90;;;;;;6063860;23;20465;-81
2021/11/23 07:12:55;;;;;;;6.32;0.93;;;5.00;99.90;;;;;;6063600;23;20026;-80
2021/11/23 07:15:22;;;;;;;4.50;0.88;;;4.90;99.90;;;;;;6062545;23;20027;-81
2021/11/23 07:17:49;;;;;;;4.97;1.10;;;4.90;99.90;;;;;;6064336;23;20023;-80
2021/11/23 07:20:16;;;;;;;5.65;1.08;;;4.90;99.90;;;;;;6064573;23;20022;-81
2021/11/23 07:22:43;;;;;;;5.43;1.35;;;4.90;99.90;;;;;;6064026;23;20481;-80
2021/11/23 07:25:11;;;;;;;2.33;0.82;;;4.90;99.90;;;;;;6062968;23;20027;-79
2021/11/23 07:27:38;;;;;;;5.90;1.17;;;4.90;99.90;;;;;;6063806;23;20026;-80
2021/11/23 07:30:06;;;;;;;5.20;0.75;;;4.90;99.90;;;;;;6063133;23;20402;-80
2021/11/23 07:32:35;;;;;;;4.67;1.30;;;4.90;99.90;;;;;;6034487;23;20019;-80
2021/11/23 07:35:06;;;;;;;6.53;1.25;;;4.90;99.90;;;;;;6034237;23;20019;-81
2021/11/23 07:37:40;;;;;;;5.50;0.88;;;4.90;99.90;;;;;;6034064;23;20019;-81
2021/11/23 07:40:08;;;;;;;6.93;1.15;;;4.80;99.90;;;;;;6032026;23;20023;-80
2021/11/23 07:42:35;;;;;;;4.95;1.15;;;4.90;99.90;;;;;;6033946;23;20478;-81
2021/11/23 07:45:03;;;;;;;4.90;1.20;;;4.80;99.90;;;;;;6056281;23;20027;-81
2021/11/23 07:47:30;;;;;;;5.40;1.20;;;4.90;99.90;;;;;;6055867;23;20478;-81
2021/11/23 07:49:57;;;;;;;5.43;0.90;;;4.80;99.90;;;;;;6034245;23;20022;-80
2021/11/23 07:52:24;;;;;;;3.10;1.00;;;4.90;99.90;;;;;;6054995;23;20039;-80
2021/11/23 07:54:51;;;;;;;11.02;1.42;;;4.90;99.90;;;;;;6033899;23;20063;-81
2021/11/23 07:57:19;;;;;;;3.15;0.95;;;4.90;99.90;;;;;;6033514;23;20562;-81
2021/11/23 07:59:46;;;;;;;6.60;1.30;;;4.90;99.90;;;;;;6034177;23;20022;-81
2021/11/23 08:02:13;;;;;;;6.20;1.10;;;4.90;99.90;;;;;;6074588;23;20077;-81
2021/11/23 08:04:40;;;;;;;3.95;1.00;;;4.90;99.90;;;;;;6091069;23;20016;-81
2021/11/23 08:07:07;;;;;;;6.38;1.23;;;5.00;99.90;;;;;;6090840;23;20022;-80
2021/11/23 08:09:34;;;;;;;3.95;0.95;;;5.00;99.90;;;;;;6091318;23;20022;-80
2021/11/23 08:12:03;;;;;;;6.47;1.10;;;5.10;99.90;;;;;;6091434;23;20397;-81
2021/11/23 08:14:30;;;;;;;9.23;1.30;;;5.00;99.90;;;;;;6091596;23;20077;-81
2021/11/23 08:16:57;;;;;;;7.82;1.00;;;5.10;99.90;;;;;;6090793;23;20030;-81
2021/11/23 08:19:24;;;;;;;7.97;1.20;;;5.10;99.90;;;;;;6090202;23;20050;-83
2021/11/23 08:21:51;;;;;;;7.50;1.73;;;5.10;99.90;;;;;;6091686;23;20408;-81
2021/11/23 08:24:18;;;;;;;6.30;1.42;;;5.20;99.90;;;;;;6090764;23;20030;-81
2021/11/23 08:26:45;;;;;;;5.28;1.05;;;5.20;99.90;;;;;;6090873;23;20085;-82
2021/11/23 08:29:12;;;;;;;12.07;1.73;;;5.20;99.90;;;;;;6090853;23;20085;-81
2021/11/23 08:31:39;;;;;;;11.77;1.55;;;5.30;99.90;;;;;;6089708;23;20022;-81
2021/11/23 08:34:06;;;;;;;6.18;1.08;;;5.30;99.90;;;;;;6090447;23;20019;-82
2021/11/23 08:36:34;;;;;;;7.43;1.40;;;5.30;99.90;;;;;;6090865;23;20026;-81
2021/11/23 08:39:03;;;;;;;8.05;1.35;;;5.40;99.90;;;;;;6090619;23;20362;-82
2021/11/23 08:41:30;;;;;;;6.10;1.23;;;5.40;99.90;;;;;;6066137;23;20077;-82
2021/11/23 08:43:57;;;;;;;8.70;1.10;;;5.50;99.90;;;;;;6093243;23;20022;-81
2021/11/23 08:46:24;;;;;;;5.15;1.20;;;5.50;99.90;;;;;;6092422;23;20077;-81
2021/11/23 08:48:51;;;;;;;8.82;1.27;;;5.60;99.90;;;;;;6093064;23;20089;-81
2021/11/23 08:51:23;;;;;;;8.60;1.30;;;5.60;99.90;;;;;;6092633;23;20026;-81
2021/11/23 08:53:51;;;;;;;5.97;1.13;;;5.70;99.90;;;;;;6093852;23;20073;-81
2021/11/23 08:56:18;;;;;;;6.32;1.38;;;5.80;99.90;;;;;;6093526;23;20499;-81
2021/11/23 08:58:48;;;;;;;7.15;1.20;;;5.80;99.90;;;;;;6093654;23;20017;-81
2021/11/23 09:01:15;;;;;;;5.90;1.08;;;5.90;99.90;;;;;;6092088;23;20085;-81
2021/11/23 09:03:42;;;;;;;10.05;2.03;;;6.00;99.90;;;;;;6093763;23;20025;-80
2021/11/23 09:06:09;;;;;;;6.65;2.10;;;6.00;99.90;;;;;;6093211;23;20140;-81
2021/11/23 09:08:54;;;;;;;8.00;1.48;;;6.10;99.90;;;;;;6093991;23;20026;-81
2021/11/23 09:11:23;;;;;;;4.63;1.10;;;6.20;99.90;;;;;;6092973;23;20081;-80
2021/11/23 09:13:51;;;;;;;5.78;1.10;;;6.20;99.90;;;;;;6093860;23;20393;-80
2021/11/23 09:16:18;;;;;;;7.07;1.10;;;6.30;99.90;;;;;;6092572;23;20026;-82
2021/11/23 09:18:45;;;;;;;8.20;1.33;;;6.30;99.90;;;;;;6093381;23;20026;-81
2021/11/23 09:21:12;;;;;;;2.80;1.05;;;6.40;99.90;;;;;;6092839;23;20389;-81
2021/11/23 09:23:39;;;;;;;8.23;1.08;;;6.50;99.90;;;;;;6094008;23;20070;-81
2021/11/23 09:26:06;;;;;;;7.43;1.48;;;6.60;99.90;;;;;;6092885;23;20484;-79
2021/11/23 09:28:33;;;;;;;5.82;1.30;;;6.60;99.90;;;;;;6093848;23;20065;-81
2021/11/23 09:31:00;;;;;;;5.88;1.00;;;6.70;99.90;;;;;;6093281;23;20022;-80
2021/11/23 09:33:27;;;;;;;4.65;1.40;;;6.80;99.90;;;;;;6092527;23;20093;-82
2021/11/23 09:35:54;;;;;;;5.75;1.15;;;6.90;99.90;;;;;;6068320;23;20065;-81
2021/11/23 09:38:21;;;;;;;4.88;1.13;;;6.90;99.90;;;;;;6092621;23;20089;-81
2021/11/23 09:40:48;;;;;;;5.53;1.00;;;7.00;99.90;;;;;;6091658;23;20022;-82
2021/11/23 09:43:15;;;;;;;8.35;1.27;;;7.10;99.90;;;;;;6067483;23;20022;-81
2021/11/23 09:45:42;;;;;;;3.78;1.10;;;7.20;99.90;;;;;;6092969;23;20019;-80
2021/11/23 09:48:09;;;;;;;4.20;1.15;;;7.20;99.90;;;;;;6092516;23;20026;-81
2021/11/23 09:50:39;;;;;;;6.32;1.20;;;7.30;99.90;;;;;;6093434;23;20022;-81
2021/11/23 09:53:08;;;;;;;5.70;1.40;;;7.40;99.90;;;;;;6092131;23;20066;-80
2021/11/23 09:55:37;;;;;;;5.82;1.23;;;7.50;99.90;;;;;;6093162;23;20492;-81
2021/11/23 09:58:04;;;;;;;;;;;7.60;99.90;;;;;;6092819;23;20023;-81
2021/11/23 10:00:36;;;;;;;3.95;0.90;;;7.60;99.90;;;;;;6092901;23;19992;-82
2021/11/23 10:03:22;;;;;;;12.55;1.15;;;7.70;99.90;;;;;;6092584;23;20019;-80
2021/11/23 10:06:04;;;;;;;4.75;0.93;;;7.70;99.90;;;;;;6085641;23;20357;-81
2021/11/23 10:08:31;;;;;;;3.75;1.10;;;7.80;99.90;;;;;;6093276;23;20058;-81
2021/11/23 10:10:58;;;;;;;3.83;0.95;;;7.90;99.90;;;;;;6092994;23;20022;-81
2021/11/23 10:13:38;;;;;;;4.53;0.80;;;7.90;99.90;;;;;;6091631;23;20018;-80
2021/11/23 10:16:05;;;;;;;4.50;1.27;;;8.00;99.90;;;;;;6092400;23;20473;-81
2021/11/23 10:19:07;;;;;;;6.78;1.27;;;8.00;99.90;;;;;;6092668;23;20093;-81
2021/11/23 10:21:34;;;;;;;4.22;1.00;;;8.10;99.90;;;;;;6091784;23;20018;-80
2021/11/23 10:24:01;;;;;;;3.97;1.20;;;8.10;99.90;;;;;;6092648;23;20029;-81
2021/11/23 10:26:31;;;;;;;5.28;1.20;;;8.20;99.90;;;;;;6092046;23;20090;-80
2021/11/23 10:29:03;;;;;;;6.88;1.30;;;8.20;99.90;;;;;;6092875;23;20026;-81
2021/11/23 10:31:40;;;;;;;4.85;0.93;;;8.30;99.90;;;;;;6092120;23;20073;-79
2021/11/23 10:34:10;;;;;;;4.90;1.15;;;8.30;99.90;;;;;;6091879;23;20127;-81
2021/11/23 10:36:44;;;;;;;3.88;0.80;;;8.40;99.90;;;;;;6092775;23;20014;-80
2021/11/23 10:39:20;;;;;;;4.03;0.75;;;8.40;99.90;;;;;;6091707;23;20022;-79
2021/11/23 10:41:58;;;;;;;6.00;1.23;;;8.50;99.90;;;;;;6091682;23;20027;-81
2021/11/23 10:44:30;;;;;;;5.23;0.80;;;8.50;99.90;;;;;;6092129;23;20088;-79
2021/11/23 10:47:03;;;;;;;8.27;0.90;;;8.60;99.90;;;;;;6092268;23;20029;-81
2021/11/23 10:49:43;;;;;;;4.55;0.65;;;8.60;99.90;;;;;;6078812;23;20010;-81
2021/11/23 10:52:36;;;;;;;4.28;0.90;;;8.70;99.90;;;;;;6079037;23;20030;-79
2021/11/23 10:55:22;;;;;;;4.68;0.68;;;8.80;99.90;;;;;;6063987;23;20089;-79
2021/11/23 10:57:50;;;;;;;4.82;1.00;;;8.90;99.90;;;;;;6084360;23;20022;-80
2021/11/23 11:00:18;;;;;;;3.40;0.70;;;8.90;99.90;;;;;;6065077;23;20464;-81
2021/11/23 11:02:45;;;;;;;3.10;0.73;;;9.00;99.90;;;;;;6063165;23;20522;-81
2021/11/23 11:05:15;;;;;;;3.78;0.93;;;9.00;99.90;;;;;;6061993;23;20086;-81
2021/11/23 11:07:46;;;;;;;4.93;0.85;;;9.00;99.90;;;;;;6063568;23;20027;-80
2021/11/23 11:10:14;;;;;;;3.70;0.88;;;9.10;99.90;;;;;;6063226;23;20027;-80
2021/11/23 11:12:41;;;;;;;4.53;0.80;;;9.20;99.90;;;;;;6063449;23;20066;-80
2021/11/23 11:15:11;;;;;;;3.50;0.80;;;9.20;99.90;;;;;;6061478;23;20307;-81
2021/11/23 11:17:39;;;;;;;3.67;0.63;;;9.30;99.90;;;;;;6063415;23;20100;-80
2021/11/23 11:20:09;;;;;;;6.88;1.20;;;9.30;99.90;;;;;;6061529;23;20011;-79
2021/11/23 11:22:55;;;;;;;5.88;0.98;;;9.40;99.90;;;;;;6063259;23;20014;-81
2021/11/23 11:25:27;;;;;;;3.50;0.95;;;9.40;99.90;;;;;;6062810;23;20079;-81
2021/11/23 11:27:54;;;;;;;4.90;1.13;;;9.40;99.90;;;;;;6063719;23;20030;-82
2021/11/23 11:30:33;;;;;;;3.75;0.50;;;9.50;99.90;;;;;;6063560;23;20026;-81
2021/11/23 11:33:09;;;;;;;4.72;0.70;;;9.50;99.90;;;;;;6063531;23;20105;-81
2021/11/23 11:35:47;;;;;;;2.42;0.80;;;9.60;99.90;;;;;;6063612;23;20074;-81
2021/11/23 11:38:38;;;;;;;3.55;0.70;;;9.60;99.90;;;;;;6061937;23;20026;-80
2021/11/23 11:41:27;;;;;;;2.30;0.63;;;9.70;99.90;;;;;;6052984;23;20362;-80
2021/11/23 11:44:07;;;;;;;4.75;0.60;;;9.70;99.90;;;;;;6063851;23;20059;-81
2021/11/23 11:46:34;;;;;;;2.40;0.80;;;9.80;99.90;;;;;;6063293;23;20015;-81
2021/11/23 11:49:02;;;;;;;2.75;0.60;;;9.80;99.90;;;;;;6063066;23;20029;-82
2021/11/23 11:51:40;;;;;;;2.97;0.60;;;9.80;99.90;;;;;;6061541;23;20422;-82
2021/11/23 11:54:20;;;;;;;2.38;0.60;;;9.90;99.90;;;;;;6058732;23;20051;-83
2021/11/23 11:56:49;;;;;;;5.03;0.73;;;9.90;99.90;;;;;;6059670;23;20025;-82
2021/11/23 11:59:16;;;;;;;4.25;0.75;;;9.90;99.90;;;;;;6059041;23;20026;-83
2021/11/23 12:01:50;;;;;;;2.70;0.73;;;9.90;99.90;;;;;;6058628;23;20489;-82
2021/11/23 12:04:20;;;;;;;3.22;0.60;;;9.90;99.90;;;;;;6058848;23;20059;-81
2021/11/23 12:06:53;;;;;;;2.03;0.60;;;10.00;99.90;;;;;;6059191;23;20833;-82
2021/11/23 12:09:37;;;;;;;3.33;0.52;;;10.00;99.90;;;;;;6058670;23;20026;-83
2021/11/23 12:12:10;;;;;;;1.20;0.70;;;10.00;99.90;;;;;;6057498;23;20030;-81
2021/11/23 12:14:58;;;;;;;3.72;0.90;;;10.10;99.90;;;;;;6059469;23;20082;-81
2021/11/23 12:17:57;;;;;;;2.72;0.63;;;10.10;99.90;;;;;;6058395;23;20457;-81
2021/11/23 12:20:47;;;;;;;5.35;0.70;;;10.10;99.90;;;;;;6059297;23;20062;-81
2021/11/23 12:23:42;;;;;;;5.10;0.80;;;10.10;99.90;;;;;;6058957;23;20033;-82
2021/11/23 12:26:17;;;;;;;3.88;0.60;;;10.20;99.90;;;;;;6029651;23;20041;-79
2021/11/23 12:28:53;;;;;;;3.17;0.60;;;10.20;99.90;;;;;;6062990;23;20094;-80
2021/11/23 12:31:22;;;;;;;4.10;1.13;;;10.20;99.90;;;;;;6061986;23;20050;-79
2021/11/23 12:33:59;;;;;;;1.38;0.40;;;10.20;99.90;;;;;;6063421;23;20019;-79
2021/11/23 12:36:28;;;;;;;4.57;0.60;;;10.20;99.90;;;;;;6062530;23;20404;-79
2021/11/23 12:39:12;;;;;;;3.08;0.85;;;10.30;99.90;;;;;;6063480;23;20078;-79
2021/11/23 12:41:40;;;;;;;2.35;0.60;;;10.30;99.90;;;;;;6062276;23;20015;-80
2021/11/23 12:44:23;;;;;;;3.03;0.60;;;10.30;99.90;;;;;;6062361;23;20019;-80
2021/11/23 12:46:59;;;;;;;2.92;0.40;;;10.30;99.90;;;;;;6062798;23;20489;-79
2021/11/23 12:49:28;;;;;;;4.55;0.70;;;10.40;99.90;;;;;;6062076;23;20023;-79
2021/11/23 12:52:06;;;;;;;1.98;0.40;;;10.40;99.90;;;;;;6063082;23;20019;-79
2021/11/23 12:54:43;;;;;;;2.05;0.80;;;10.40;99.90;;;;;;6063030;23;20406;-79
2021/11/23 12:57:18;;;;;;;4.03;0.55;;;10.40;99.90;;;;;;6062285;23;20031;-79
2021/11/23 12:59:47;;;;;;;6.93;0.82;;;10.40;99.90;;;;;;6063005;23;20075;-78
2021/11/23 13:02:44;;;;;;;3.88;0.60;;;10.40;99.90;;;;;;6061791;23;20023;-80
2021/11/23 13:05:17;;;;;;;3.58;0.60;;;10.40;99.90;;;;;;6062131;23;20046;-79
2021/11/23 13:07:53;;;;;;;2.97;0.50;;;10.40;99.90;;;;;;6062774;23;20090;-79
2021/11/23 13:10:31;;;;;;;5.65;0.90;;;10.40;99.90;;;;;;6062263;23;20078;-78
2021/11/23 13:13:05;;;;;;;2.83;0.50;;;10.40;99.90;;;;;;6062957;23;20481;-78
2021/11/23 13:15:37;;;;;;;4.25;0.60;;;10.40;99.90;;;;;;6061928;23;20074;-79
2021/11/23 13:18:08;;;;;;;3.83;0.73;;;10.40;99.90;;;;;;6062079;23;20026;-77
2021/11/23 13:20:39;;;;;;;2.85;0.80;;;10.30;99.90;;;;;;6062763;23;20030;-77
2021/11/23 13:23:23;;;;;;;3.50;0.73;;;10.30;99.90;;;;;;6061880;23;20015;-79
2021/11/23 13:26:14;;;;;;;5.38;0.88;;;10.30;99.90;;;;;;6062629;23;20474;-79
2021/11/23 13:28:49;;;;;;;3.00;0.63;;;10.30;99.90;;;;;;6062993;23;20023;-79
2021/11/23 13:31:21;;;;;;;6.63;0.95;;;10.30;99.90;;;;;;6062927;23;20090;-78
2021/11/23 13:33:57;;;;;;;3.83;0.77;;;10.40;99.90;;;;;;6064762;23;20022;-78
2021/11/23 13:36:39;;;;;;;6.20;0.63;;;10.40;99.90;;;;;;6063487;23;20038;-78
2021/11/23 13:39:06;;;;;;;2.42;0.50;;;10.40;99.90;;;;;;6063505;23;20639;-78
2021/11/23 13:41:50;;;;;;;3.83;0.73;;;10.40;99.90;;;;;;6063679;23;20034;-80
2021/11/23 13:44:20;;;;;;;7.65;0.85;;;10.40;99.90;;;;;;6063282;23;20027;-79
2021/11/23 13:46:53;;;;;;;2.35;0.80;;;10.40;99.90;;;;;;6039047;23;20019;-78
2021/11/23 13:49:38;;;;;;;5.35;0.73;;;10.40;99.90;;;;;;6063714;23;20027;-79
2021/11/23 13:52:22;;;;;;;2.90;0.80;;;10.40;99.90;;;;;;6063184;23;20018;-76
2021/11/23 13:54:55;;;;;;;5.38;0.70;;;10.30;99.90;;;;;;6064247;23;20022;-78
2021/11/23 13:57:50;;;;;;;2.92;0.60;;;10.30;99.90;;;;;;6063863;23;20065;-78
2021/11/23 14:00:25;;;;;;;4.20;0.68;;;10.30;99.90;;;;;;6063127;23;20536;-78
2021/11/23 14:03:03;;;;;;;4.40;0.68;;;10.30;99.90;;;;;;6063947;23;20026;-79
2021/11/23 14:05:50;;;;;;;4.70;1.00;;;10.40;99.90;;;;;;6063278;23;20038;-78
2021/11/23 14:08:20;;;;;;;2.63;0.60;;;10.30;99.90;;;;;;6063787;23;20477;-79
2021/11/23 14:10:52;;;;;;;4.45;0.77;;;10.30;99.90;;;;;;6063555;23;20050;-78
2021/11/23 14:13:23;;;;;;;9.15;1.58;;;10.30;99.90;;;;;;6063093;23;20023;-79
2021/11/23 14:15:53;;;;;;;3.15;0.75;;;10.30;99.90;;;;;;6063370;23;20048;-79
2021/11/23 14:18:20;;;;;;;3.85;0.70;;;10.30;99.90;;;;;;6063449;23;20049;-78
2021/11/23 14:21:00;;;;;;;4.88;0.88;;;10.30;99.90;;;;;;6063792;23;20030;-79
2021/11/23 14:23:43;;;;;;;3.33;0.73;;;10.30;99.90;;;;;;6062726;23;20030;-79
2021/11/23 14:26:35;;;;;;;6.75;1.00;;;10.30;99.90;;;;;;6063733;23;20366;-79
2021/11/23 14:29:13;;;;;;;5.10;0.80;;;10.30;99.90;;;;;;6064106;23;20030;-79
2021/11/23 14:31:41;;;;;;;5.68;1.25;;;10.30;99.90;;;;;;6063706;23;20407;-79
2021/11/23 14:34:16;;;;;;;4.35;1.33;;;10.30;99.90;;;;;;6063637;23;20038;-79
2021/11/23 14:36:46;;;;;;;4.72;0.90;;;10.30;99.90;;;;;;6063833;23;20083;-79
2021/11/23 14:39:16;;;;;;;8.15;1.13;;;10.30;99.90;;;;;;6063170;23;20023;-79
2021/11/23 14:41:44;;;;;;;6.88;1.00;;;10.30;99.90;;;;;;6063653;23;20022;-79
2021/11/23 14:44:17;;;;;;;4.88;1.30;;;10.30;99.90;;;;;;6063419;23;20022;-79
2021/11/23 14:46:44;;;;;;;3.72;0.93;;;10.20;99.90;;;;;;6063596;23;20046;-79
2021/11/23 14:49:11;;;;;;;9.23;1.15;;;10.20;99.90;;;;;;6063183;23;20402;-77
2021/11/23 14:51:38;;;;;;;10.55;1.30;;;10.20;99.90;;;;;;6063586;23;20026;-79
2021/11/23 14:54:05;;;;;;;10.10;1.08;;;10.10;99.90;;;;;;6062927;23;20030;-77
2021/11/23 14:56:33;;;;;;;3.92;1.30;;;10.10;99.90;;;;;;6063277;23;20027;-78
2021/11/23 14:59:00;;;;;;;3.33;0.95;;;10.10;99.90;;;;;;6062760;23;20031;-79
2021/11/23 15:01:27;;;;;;;3.72;1.20;;;10.10;99.90;;;;;;6061941;23;20537;-79
2021/11/23 15:03:55;;;;;;;5.32;1.40;;;10.10;99.90;;;;;;6063544;23;20070;-79
2021/11/23 15:06:22;;;;;;;10.52;1.38;;;10.10;99.90;;;;;;6062831;23;20026;-79
2021/11/23 15:08:50;;;;;;;4.70;1.40;;;10.10;99.90;;;;;;6063370;23;20042;-79
2021/11/23 15:11:18;;;;;;;5.07;1.30;;;10.10;99.90;;;;;;6060959;23;20035;-79
2021/11/23 15:13:45;;;;;;;5.68;1.77;;;10.00;99.90;;;;;;6063350;23;20023;-79
2021/11/23 15:16:12;;;;;;;6.40;1.13;;;10.00;99.90;;;;;;6062543;23;20082;-78
2021/11/23 15:18:39;;;;;;;5.93;1.63;;;10.00;99.90;;;;;;6063525;23;20026;-79
2021/11/23 15:21:05;;;;;;;5.40;1.17;;;10.00;99.90;;;;;;6061201;23;20054;-79
2021/11/23 15:23:33;;;;;;;13.93;5.85;;;9.90;99.90;;;;;;6063533;23;20045;-79
2021/11/23 15:26:00;;;;;;;3.65;1.02;;;9.90;99.90;;;;;;6063405;23;20066;-79
2021/11/23 15:28:27;;;;;;;6.18;1.25;;;9.90;99.90;;;;;;6062864;23;20026;-79
2021/11/23 15:30:54;;;;;;;6.30;1.80;;;9.90;99.90;;;;;;6062417;23;20077;-78
2021/11/23 15:33:22;;;;;;;6.32;1.02;;;9.80;99.90;;;;;;6062378;23;20022;-79
2021/11/23 15:35:49;;;;;;;2.83;1.10;;;9.80;99.90;;;;;;6063623;23;20022;-79
2021/11/23 15:38:16;;;;;;;6.70;1.13;;;9.80;99.90;;;;;;6063048;23;20081;-78
2021/11/23 15:40:45;;;;;;;6.75;1.60;;;9.80;99.90;;;;;;6063532;23;20354;-78
2021/11/23 15:43:12;;;;;;;5.82;1.20;;;9.70;99.90;;;;;;6061797;23;20023;-78
2021/11/23 15:45:39;;;;;;;7.03;1.17;;;9.70;99.90;;;;;;6063258;23;20074;-79
2021/11/23 15:48:06;;;;;;;5.88;1.33;;;9.70;99.90;;;;;;6062205;23;20029;-79
2021/11/23 15:50:33;;;;;;;14.55;5.55;;;9.60;99.90;;;;;;6063216;23;20083;-79
2021/11/23 15:53:02;;;;;;;10.35;2.60;;;9.60;99.90;;;;;;6063715;23;20506;-79
2021/11/23 15:55:31;;;;;;;9.10;1.70;;;9.60;99.90;;;;;;6061997;23;20477;-78
2021/11/23 15:57:58;;;;;;;6.80;2.03;;;9.50;99.90;;;;;;6063405;23;20570;-78
2021/11/23 16:00:42;;;;;;;11.05;2.58;;;9.50;99.90;;;;;;6063086;23;20391;-80
2021/11/23 16:03:15;;;;;;;10.05;1.98;;;9.50;99.90;;;;;;6062057;23;20041;-79
2021/11/23 16:05:44;;;;;;;5.15;1.67;;;9.40;99.90;;;;;;6062826;23;20075;-78
2021/11/23 16:08:11;;;;;;;8.40;1.70;;;9.40;99.90;;;;;;6062809;23;20027;-79
2021/11/23 16:10:38;;;;;;;6.30;1.73;;;9.40;99.90;;;;;;6062644;23;20094;-79
2021/11/23 16:13:05;;;;;;;9.90;1.75;;;9.40;99.90;;;;;;6062208;23;20047;-77
2021/11/23 16:15:32;;;;;;;7.60;2.42;;;9.30;99.90;;;;;;6062437;23;20015;-78
2021/11/23 16:17:59;;;;;;;7.53;1.58;;;9.30;99.90;;;;;;6063162;23;20025;-78
2021/11/23 16:20:46;;;;;;;8.00;1.67;;;9.30;99.90;;;;;;6062661;23;20014;-78
2021/11/23 16:23:13;;;;;;;8.05;1.48;;;9.20;99.90;;;;;;6062479;23;20082;-78
2021/11/23 16:25:40;;;;;;;8.90;1.60;;;9.20;99.90;;;;;;6062228;23;20587;-78
2021/11/23 16:28:07;;;;;;;8.55;1.55;;;9.20;99.90;;;;;;6061951;23;20023;-77
2021/11/23 16:30:36;;;;;;;7.68;1.92;;;9.20;99.90;;;;;;6061958;23;20086;-78
2021/11/23 16:33:03;;;;;;;5.28;1.33;;;9.10;99.90;;;;;;6062532;23;20019;-78
2021/11/23 16:35:31;;;;;;;6.68;1.48;;;9.10;99.90;;;;;;6062094;23;20038;-79
2021/11/23 16:37:58;;;;;;;9.45;1.38;;;9.10;99.90;;;;;;6062224;23;20014;-77
2021/11/23 16:40:25;;;;;;;7.32;1.50;;;9.00;99.90;;;;;;6061718;23;20027;-78
2021/11/23 16:42:52;;;;;;;6.65;1.40;;;9.00;99.90;;;;;;6062539;23;20113;-80
2021/11/23 16:45:20;;;;;;;6.65;1.30;;;9.00;99.90;;;;;;6061399;23;20501;-79
2021/11/23 16:47:47;;;;;;;8.10;1.52;;;9.00;99.90;;;;;;6062505;23;20019;-79
2021/11/23 16:50:14;;;;;;;4.82;1.10;;;8.90;99.90;;;;;;6062429;23;20668;-77
2021/11/23 16:52:42;;;;;;;6.32;1.50;;;8.90;99.90;;;;;;6062289;23;20019;-79
2021/11/23 16:55:10;;;;;;;7.38;1.20;;;8.90;99.90;;;;;;6061729;23;20027;-80
2021/11/23 16:57:38;;;;;;;10.37;1.37;;;8.90;99.90;;;;;;6062757;23;20089;-77
2021/11/23 17:00:12;;;;;;;7.63;1.10;;;8.80;99.90;;;;;;6062278;23;20047;-78
2021/11/23 17:02:41;;;;;;;6.53;1.50;;;8.80;99.90;;;;;;6060288;23;20469;-78
2021/11/23 17:05:13;;;;;;;7.55;1.73;;;8.80;99.90;;;;;;6062680;23;20031;-79
2021/11/23 17:07:40;;;;;;;7.40;1.55;;;8.80;99.90;;;;;;6063040;23;20022;-78
2021/11/23 17:10:08;;;;;;;5.38;1.10;;;8.80;99.90;;;;;;6062244;23;20832;-78
2021/11/23 17:12:35;;;;;;;6.63;1.25;;;8.70;99.90;;;;;;6063555;23;20485;-79
2021/11/23 17:15:03;;;;;;;12.52;1.73;;;8.70;99.90;;;;;;6062987;23;20075;-78
2021/11/23 17:17:31;;;;;;;6.00;1.85;;;8.70;99.90;;;;;;6060889;23;20019;-78
2021/11/23 17:19:58;;;;;;;4.65;1.42;;;8.70;99.90;;;;;;6064100;23;20365;-78
2021/11/23 17:22:25;;;;;;;8.77;1.40;;;8.70;99.90;;;;;;6062815;23;20023;-77
2021/11/23 17:24:55;;;;;;;4.93;1.05;;;8.60;99.90;;;;;;6063777;23;20078;-76
2021/11/23 17:27:23;;;;;;;6.32;1.35;;;8.60;99.90;;;;;;6063417;23;20031;-77
2021/11/23 17:29:51;;;;;;;8.30;1.65;;;8.60;99.90;;;;;;6060812;23;20042;-77
2021/11/23 17:32:18;;;;;;;8.25;1.27;;;8.60;99.90;;;;;;6062151;23;20033;-77
2021/11/23 17:34:46;;;;;;;9.80;1.38;;;8.60;99.90;;;;;;6061159;23;20442;-77
2021/11/23 17:37:12;;;;;;;7.28;1.15;;;8.70;99.90;;;;;;6060490;23;20094;-76
2021/11/23 17:39:41;;;;;;;8.27;2.08;;;8.60;99.90;;;;;;6060175;23;20033;-78
2021/11/23 17:42:08;;;;;;;;;;;8.60;99.90;;;;;;6060961;23;20366;-78
2021/11/23 17:44:35;;;;;;;9.95;1.50;;;8.60;99.90;;;;;;6061563;23;19943;-78
2021/11/23 17:49:47;;;;;;;10.10;1.20;;;8.60;99.90;;;;;;6060355;23;20545;-78
2021/11/23 17:52:14;;;;;;;9.10;1.17;;;8.60;99.90;;;;;;6059925;23;20038;-77
2021/11/23 17:54:41;;;;;;;5.45;1.23;;;8.60;99.90;;;;;;6061545;23;20015;-77
2021/11/23 17:57:09;;;;;;;8.35;1.60;;;8.60;99.90;;;;;;6060531;23;20078;-77
2021/11/23 17:59:40;;;;;;;5.20;1.20;;;8.60;99.90;;;;;;6060560;23;20106;-76
2021/11/23 18:02:09;;;;;;;5.65;0.90;;;8.60;99.90;;;;;;6059849;23;20019;-76
2021/11/23 18:04:37;;;;;;;9.63;1.70;;;8.60;99.90;;;;;;6061742;23;20530;-77
2021/11/23 18:07:06;;;;;;;5.75;1.15;;;8.60;99.90;;;;;;6061491;23;20161;-78
2021/11/23 18:09:34;;;;;;;8.63;1.38;;;8.60;99.90;;;;;;6061605;23;20795;-77
2021/11/23 18:12:02;;;;;;;7.72;1.52;;;8.60;99.90;;;;;;6062096;23;20413;-78
2021/11/23 18:14:29;;;;;;;13.18;1.55;;;8.60;99.90;;;;;;6061563;23;20281;-77
2021/11/23 18:16:56;;;;;;;8.02;1.80;;;8.60;99.90;;;;;;6061512;23;20023;-76
2021/11/23 18:19:23;;;;;;;7.63;1.30;;;8.60;99.90;;;;;;6060708;23;20026;-77
2021/11/23 18:21:51;;;;;;;10.77;1.85;;;8.60;99.90;;;;;;6035811;23;20015;-77
2021/11/23 18:24:18;;;;;;;8.98;1.58;;;8.50;99.90;;;;;;6057451;23;20788;-76
2021/11/23 18:26:45;;;;;;;8.98;1.35;;;8.50;99.90;;;;;;6058971;23;20533;-77
2021/11/23 18:29:12;;;;;;;9.60;1.80;;;8.60;99.90;;;;;;6057922;23;20090;-77
2021/11/23 18:31:39;;;;;;;5.07;1.40;;;8.50;99.90;;;;;;6057200;23;20688;-79
2021/11/23 18:34:05;;;;;;;6.15;1.30;;;8.50;99.90;;;;;;6051637;23;20071;-78
2021/11/23 18:36:32;;;;;;;7.32;1.45;;;8.50;99.90;;;;;;6057787;23;20558;-77
2021/11/23 18:38:59;;;;;;;4.32;1.30;;;8.50;99.90;;;;;;6057776;23;20074;-78
2021/11/23 18:41:35;;;;;;;9.45;1.63;;;8.50;99.90;;;;;;6057011;23;20027;-77
2021/11/23 18:44:03;;;;;;;7.55;1.17;;;8.50;99.90;;;;;;6056811;23;20077;-78
2021/11/23 18:46:31;;;;;;;8.05;1.70;;;8.50;99.90;;;;;;6056214;23;20019;-80
2021/11/23 18:48:58;;;;;;;7.38;1.42;;;8.50;99.90;;;;;;6056516;23;20027;-80
2021/11/23 18:51:25;;;;;;;6.15;1.65;;;8.50;99.90;;;;;;6057474;23;20038;-78
2021/11/23 18:53:52;;;;;;;5.35;1.20;;;8.50;99.90;;;;;;6058663;23;20027;-79
2021/11/23 18:56:19;;;;;;;8.73;1.60;;;8.50;99.90;;;;;;6058318;23;20030;-80
2021/11/23 18:58:46;;;;;;;5.18;1.33;;;8.50;99.90;;;;;;6058200;23;20023;-79
2021/11/23 19:01:13;;;;;;;11.88;2.17;;;8.50;99.90;;;;;;6057471;23;20114;-78
2021/11/23 19:03:41;;;;;;;6.15;1.60;;;8.50;99.90;;;;;;6058110;23;20481;-78
2021/11/23 19:06:07;;;;;;;5.68;1.25;;;8.50;99.90;;;;;;6058013;23;20177;-76
2021/11/23 19:08:35;;;;;;;3.85;1.48;;;8.40;99.90;;;;;;6058342;23;20398;-75
2021/11/23 19:11:02;;;;;;;4.57;0.80;;;8.40;99.90;;;;;;6057228;23;20086;-77
2021/11/23 19:13:29;;;;;;;8.55;1.20;;;8.40;99.90;;;;;;6054190;23;20031;-76
2021/11/23 19:15:59;;;;;;;5.90;1.00;;;8.40;99.90;;;;;;6057580;23;20019;-77
2021/11/23 19:18:26;;;;;;;7.57;1.65;;;8.50;99.90;;;;;;6055940;23;20082;-76
2021/11/23 19:20:53;;;;;;;8.55;1.60;;;8.50;99.90;;;;;;6056909;23;20027;-78
2021/11/23 19:23:20;;;;;;;6.68;1.00;;;8.50;99.90;;;;;;6056710;23;20085;-79
2021/11/23 19:25:47;;;;;;;7.88;1.83;;;8.50;99.90;;;;;;6057157;23;20023;-77
2021/11/23 19:28:13;;;;;;;4.57;1.27;;;8.50;99.90;;;;;;6056490;23;20035;-77
2021/11/23 19:30:42;;;;;;;5.78;1.45;;;8.40;99.90;;;;;;6056421;23;20031;-78
2021/11/23 19:33:09;;;;;;;2.78;1.08;;;8.50;99.90;;;;;;6056921;23;20027;-80
2021/11/23 19:35:37;;;;;;;7.00;1.40;;;8.50;99.90;;;;;;6058295;23;20022;-79
2021/11/23 19:38:05;;;;;;;12.00;1.83;;;8.50;99.90;;;;;;6058106;23;20174;-78
2021/11/23 19:40:34;;;;;;;9.83;1.70;;;8.50;99.90;;;;;;6057725;23;20019;-78
2021/11/23 19:43:05;;;;;;;4.97;1.40;;;8.50;99.90;;;;;;6057773;23;20340;-78
2021/11/23 19:45:35;;;;;;;9.73;1.70;;;8.40;99.90;;;;;;6058074;23;20023;-76
2021/11/23 19:48:03;;;;;;;10.40;1.77;;;8.40;99.90;;;;;;6057971;23;20524;-80
2021/11/23 19:50:31;;;;;;;7.53;1.53;;;8.40;99.90;;;;;;6057609;23;20018;-77
2021/11/23 19:52:58;;;;;;;4.88;1.02;;;8.50;99.90;;;;;;6058060;23;20102;-77
2021/11/23 19:55:26;;;;;;;8.10;1.33;;;8.40;99.90;;;;;;6057129;23;20067;-78
2021/11/23 19:57:58;;;;;;;6.18;1.20;;;8.40;99.90;;;;;;6058669;23;20023;-77
2021/11/23 20:00:31;;;;;;;11.38;2.33;;;8.40;99.90;;;;;;6057627;23;20094;-78
2021/11/23 20:03:00;;;;;;;5.57;1.60;;;8.40;99.90;;;;;;6057722;23;20082;-78
2021/11/23 20:05:28;;;;;;;4.20;0.90;;;8.50;99.90;;;;;;6057869;23;20950;-77
2021/11/23 20:07:55;;;;;;;8.95;1.85;;;8.50;99.90;;;;;;6057717;23;20031;-77
2021/11/23 20:10:25;;;;;;;8.02;1.88;;;8.50;99.90;;;;;;6057538;23;20027;-78
2021/11/23 20:12:52;;;;;;;9.88;1.60;;;8.60;99.90;;;;;;6058118;23;20490;-79
2021/11/23 20:15:21;;;;;;;11.85;2.67;;;8.50;99.90;;;;;;6055734;23;20034;-79